Fayetteville Regional Grannis Field
KFAY : now visible

Airfield :











YOU CAN JOIN US ON...

 
LOGIN :

Register | Disclaimer

   EN    FR    IT 

 









Legend :    VFR   Marginal VFR   IFR   Intensive IFR   Very Intensive IFR
Visi :
Ceiling :
>= 8 km
>= 3000ft
5 to 8 km
1000 to 3000 ft
1500m to 5 km
500 to 1000 ft
800 to 1500m
200 to 500 ft
< 800m
< 200 ft
Symbols :   Thunderstorms  Fog  Heavy snow  Heavy precipitations  Wind > 20 kt






- Airport Elevation : 189 ft
- IATA code : FAY


KFAY - Fayetteville Regional Grannis Field

CURRENT METAR :
  • 142053Z 24013KT 10SM SCT020 BKN024 12/07 A2960 RMK AO2 SLP018 T01170072 51021

EXPIRED METARs :
  • 142020Z 23011KT 10SM OVC017 12/08 A2958 RMK AO2 T01170078
  • 141953Z 24012G18KT 10SM OVC012 11/08 A2958 RMK AO2 SLP010 T01110078
  • 141853Z 24016G20KT 10SM OVC010 11/08 A2956 RMK AO2 SLP005 T01060078

TAF KFAY
Valid from the 14 at 19:00 until the 15 at 18:00 UTC


141904Z 1419/1518 23015KT P6SM BKN014 OVC070
TEMPO 1419/1423 25012G22KT SCT040 BKN070
FM142300 25008KT P6SM BKN100
FM150300 27005KT P6SM FEW250



MET'MAP, your aeronautical weather chart ! - Copyright ORBIFLY December 2007 - Disclaimer

ORBIFLY MET'MAP TEAM :

Programming & Development : Alexandra Zaïnal
Concept & original design : Baudouin d'Aumeries
Assistance for programming : Marc-Olivier Méhu
Technical & hardware support : Manuel Goepfert

Contact : metmap@orbifly.com




SOURCES & CREDITS :

   NOAA       Earth
Advisory